createdAt,value
2018-07-22T00:00:13.939Z,99941.05
2018-07-22T00:03:12.179Z,99942.75
2018-07-22T00:06:10.206Z,99944.75
2018-07-22T00:09:08.106Z,99937.98
2018-07-22T00:12:06.026Z,99940.36
2018-07-22T00:15:04.086Z,99937.45
2018-07-22T00:18:02.133Z,99939.17
2018-07-22T00:21:00.107Z,99941.61
2018-07-22T00:23:58.207Z,99941.20
2018-07-22T00:26:56.106Z,99945.27
2018-07-22T00:29:54.016Z,99947.75
2018-07-22T00:32:51.975Z,99941.85
2018-07-22T00:35:49.742Z,99942.11
2018-07-22T00:38:47.749Z,99942.36
2018-07-22T00:41:45.550Z,99943.95
2018-07-22T00:44:43.286Z,99953.02
2018-07-22T00:47:41.278Z,99948.37
2018-07-22T00:50:38.624Z,99946.53
2018-07-22T00:53:36.511Z,99951.18
2018-07-22T00:56:34.682Z,99945.55
2018-07-22T00:59:32.548Z,99949.59
2018-07-22T01:02:30.636Z,99940.08
2018-07-22T01:05:28.910Z,99942.50
2018-07-22T01:08:27.006Z,99942.78
2018-07-22T01:11:25.134Z,99942.36
2018-07-22T01:14:23.106Z,99940.98
2018-07-22T01:17:20.946Z,99944.52
2018-07-22T01:20:19.763Z,99946.67
2018-07-22T01:23:17.685Z,99949.70
2018-07-22T01:26:15.528Z,99949.13
2018-07-22T01:29:13.459Z,99950.22
2018-07-22T01:32:11.260Z,99951.45
2018-07-22T01:35:09.084Z,99952.62
2018-07-22T01:38:07.175Z,99955.99
2018-07-22T01:41:04.433Z,99956.44
2018-07-22T01:44:02.269Z,99952.98
2018-07-22T01:47:00.287Z,99951.28
2018-07-22T01:49:58.146Z,99949.31
2018-07-22T01:52:55.931Z,99953.32
2018-07-22T01:55:53.951Z,99949.09
2018-07-22T01:58:52.019Z,99943.68
2018-07-22T02:01:50.028Z,99953.66
2018-07-22T02:04:47.914Z,99944.42
2018-07-22T02:07:45.654Z,99947.39
2018-07-22T02:10:43.535Z,99946.06
2018-07-22T02:13:41.412Z,99943.49
2018-07-22T02:16:39.241Z,99945.75
2018-07-22T02:19:37.225Z,99947.98
2018-07-22T02:22:35.314Z,99947.85
2018-07-22T02:25:33.391Z,99954.23
2018-07-22T02:28:31.479Z,99955.00
2018-07-22T02:31:30.521Z,99952.66
2018-07-22T02:34:28.457Z,99954.06
2018-07-22T02:37:26.413Z,99960.74
2018-07-22T02:40:24.383Z,99963.94
2018-07-22T02:43:22.380Z,99963.81
2018-07-22T02:46:20.181Z,99961.95
2018-07-22T02:49:18.098Z,99958.22
2018-07-22T02:52:15.218Z,99963.91
2018-07-22T02:55:13.191Z,99962.27
2018-07-22T02:58:11.135Z,99957.52
2018-07-22T03:01:09.158Z,99964.88
2018-07-22T03:04:07.278Z,99961.94
2018-07-22T03:07:05.154Z,99968.31
2018-07-22T03:10:03.098Z,99963.67
2018-07-22T03:13:01.182Z,99969.28
2018-07-22T03:15:59.070Z,99969.65
2018-07-22T03:18:57.126Z,99973.68
2018-07-22T03:21:55.115Z,99974.14
2018-07-22T03:24:53.164Z,99971.23
2018-07-22T03:27:51.134Z,99973.84
2018-07-22T03:30:49.246Z,99978.41
2018-07-22T03:33:47.289Z,99985.67
2018-07-22T03:36:45.391Z,99981.42
2018-07-22T03:39:43.556Z,99985.47
2018-07-22T03:42:41.522Z,99983.98
2018-07-22T03:45:38.799Z,99990.15
2018-07-22T03:48:36.926Z,99987.17
2018-07-22T03:51:34.843Z,99989.02
2018-07-22T03:54:32.662Z,99993.36
2018-07-22T03:57:30.559Z,99995.13
2018-07-22T04:00:28.907Z,99993.97
2018-07-22T04:03:27.034Z,99993.97
2018-07-22T04:06:24.897Z,99993.15
2018-07-22T04:09:22.898Z,100000.00
2018-07-22T04:12:21.061Z,99999.25
2018-07-22T04:15:19.918Z,100001.52
2018-07-22T04:18:18.027Z,100003.44
2018-07-22T04:21:15.925Z,100001.64
2018-07-22T04:24:13.855Z,100004.50
2018-07-22T04:27:11.719Z,100008.25
2018-07-22T04:30:09.747Z,100007.86
2018-07-22T04:33:07.786Z,100012.95
2018-07-22T04:36:05.766Z,100012.89
2018-07-22T04:39:03.742Z,100015.62
2018-07-22T04:42:01.639Z,100022.88
2018-07-22T04:44:59.606Z,100023.85
2018-07-22T04:47:57.706Z,100026.91
2018-07-22T04:50:55.735Z,100026.09
2018-07-22T04:53:53.740Z,100029.55
2018-07-22T04:56:51.638Z,100031.34
2018-07-22T04:59:49.603Z,100033.59
2018-07-22T05:02:47.529Z,100032.19
2018-07-22T05:05:45.477Z,100042.99
2018-07-22T05:08:43.494Z,100043.91
2018-07-22T05:11:41.673Z,100043.41
2018-07-22T05:14:39.638Z,100049.00
2018-07-22T05:17:37.514Z,100055.40
2018-07-22T05:20:35.354Z,100058.94
2018-07-22T05:23:33.339Z,100055.17
2018-07-22T05:26:31.194Z,100061.35
2018-07-22T05:29:29.002Z,100055.78
2018-07-22T05:32:26.919Z,100054.95
2018-07-22T05:35:24.549Z,100054.13
2018-07-22T05:38:22.626Z,100055.11
2018-07-22T05:41:21.615Z,100057.52
2018-07-22T05:44:19.734Z,100054.48
2018-07-22T05:47:17.698Z,100054.27
2018-07-22T05:50:15.530Z,100063.63
2018-07-22T05:53:13.900Z,100064.59
2018-07-22T05:56:11.735Z,100067.73
2018-07-22T05:59:09.703Z,100069.66
2018-07-22T06:02:07.544Z,100070.56
2018-07-22T06:05:05.532Z,100080.00
2018-07-22T06:08:03.155Z,100088.61
2018-07-22T06:11:01.061Z,100081.61
2018-07-22T06:13:58.906Z,100083.05
2018-07-22T06:16:56.817Z,100082.63
2018-07-22T06:19:54.659Z,100088.21
2018-07-22T06:22:52.852Z,100084.99
2018-07-22T06:25:50.046Z,100086.34
2018-07-22T06:28:47.846Z,100081.47
2018-07-22T06:31:45.962Z,100079.94
2018-07-22T06:34:44.118Z,100078.20
2018-07-22T06:37:41.451Z,100077.13
2018-07-22T06:40:39.478Z,100072.88
2018-07-22T06:43:37.602Z,100073.66
2018-07-22T06:46:35.710Z,100078.06
2018-07-22T06:49:33.546Z,100074.30
2018-07-22T06:52:31.675Z,100079.06
2018-07-22T06:55:29.313Z,100089.33
2018-07-22T06:58:27.503Z,100086.89
2018-07-22T07:01:25.554Z,100088.70
2018-07-22T07:04:23.459Z,100087.96
2018-07-22T07:07:21.407Z,100088.53
2018-07-22T07:10:19.406Z,100086.16
2018-07-22T07:13:17.292Z,100088.25
2018-07-22T07:16:15.462Z,100083.48
2018-07-22T07:19:13.346Z,100090.28
2018-07-22T07:22:11.330Z,100090.52
2018-07-22T07:25:09.456Z,100089.59
2018-07-22T07:28:07.231Z,100094.55
2018-07-22T07:31:05.243Z,100098.43
2018-07-22T07:34:03.327Z,100103.03
2018-07-22T07:37:01.217Z,100094.63
2018-07-22T07:39:59.234Z,100098.27
2018-07-22T07:42:57.118Z,100101.72
2018-07-22T07:45:54.286Z,100107.91
2018-07-22T07:48:51.423Z,100115.32
2018-07-22T07:51:49.322Z,100103.41
2018-07-22T07:54:47.382Z,100101.02
2018-07-22T07:57:45.239Z,100119.91
2018-07-22T08:00:43.279Z,100118.52
2018-07-22T08:03:41.490Z,100128.41
2018-07-22T08:06:39.612Z,100122.23
2018-07-22T08:09:37.675Z,100132.78
2018-07-22T08:12:35.743Z,100127.66
2018-07-22T08:15:33.798Z,100129.95
2018-07-22T08:18:31.847Z,100129.16
2018-07-22T08:21:29.851Z,100140.17
2018-07-22T08:24:27.625Z,100141.42
2018-07-22T08:27:25.630Z,100146.16
2018-07-22T08:30:23.627Z,100131.66
2018-07-22T08:33:21.647Z,100135.33
2018-07-22T08:36:19.530Z,100130.08
2018-07-22T08:39:19.608Z,100123.65
2018-07-22T08:42:17.643Z,100124.93
2018-07-22T08:45:15.495Z,100129.52
2018-07-22T08:48:13.478Z,100133.77
2018-07-22T08:51:11.552Z,100136.45
2018-07-22T08:54:09.408Z,100151.68
2018-07-22T08:57:07.100Z,100144.58
2018-07-22T09:00:05.192Z,100142.10
2018-07-22T09:03:03.258Z,100145.67
2018-07-22T09:06:01.423Z,100143.23
2018-07-22T09:08:59.318Z,100134.48
2018-07-22T09:11:57.383Z,100139.56
2018-07-22T09:14:55.356Z,100134.14
2018-07-22T09:17:53.452Z,100134.98
2018-07-22T09:20:51.498Z,100141.85
2018-07-22T09:23:49.550Z,100149.11
2018-07-22T09:26:47.451Z,100141.44
2018-07-22T09:29:45.226Z,100157.89
2018-07-22T09:32:43.099Z,100161.62
2018-07-22T09:35:41.133Z,100162.58
2018-07-22T09:38:38.987Z,100163.00
2018-07-22T09:41:36.166Z,100163.59
2018-07-22T09:44:33.850Z,100158.99
2018-07-22T09:47:32.066Z,100172.84
2018-07-22T09:50:30.071Z,100169.23
2018-07-22T09:53:28.378Z,100162.83
2018-07-22T09:56:26.490Z,100173.18
2018-07-22T09:59:24.512Z,100176.97
2018-07-22T10:02:22.660Z,100174.52
2018-07-22T10:05:20.754Z,100180.38
2018-07-22T10:08:18.716Z,100184.44
2018-07-22T10:11:16.665Z,100180.61
2018-07-22T10:14:14.560Z,100182.92
2018-07-22T10:17:12.499Z,100173.55
2018-07-22T10:20:09.671Z,100169.06
2018-07-22T10:23:07.814Z,100169.25
2018-07-22T10:26:05.862Z,100168.53
2018-07-22T10:29:04.003Z,100166.91
2018-07-22T10:32:02.242Z,100162.83
2018-07-22T10:35:00.047Z,100160.29
2018-07-22T10:37:58.009Z,100153.80
2018-07-22T10:40:56.003Z,100153.16
2018-07-22T10:43:54.242Z,100169.25
2018-07-22T10:46:52.147Z,100168.73
2018-07-22T10:49:50.215Z,100160.91
2018-07-22T10:52:48.133Z,100159.88
2018-07-22T10:55:46.302Z,100154.11
2018-07-22T10:58:44.069Z,100155.81
2018-07-22T11:01:42.095Z,100144.00
2018-07-22T11:04:40.082Z,100150.40
2018-07-22T11:07:38.147Z,100145.06
2018-07-22T11:10:36.216Z,100147.77
2018-07-22T11:13:34.130Z,100143.30
2018-07-22T11:16:31.926Z,100134.29
2018-07-22T11:19:30.131Z,100140.25
2018-07-22T11:22:28.345Z,100132.87
2018-07-22T11:25:26.105Z,100138.00
2018-07-22T11:28:23.866Z,100133.89
2018-07-22T11:31:21.856Z,100140.78
2018-07-22T11:34:19.836Z,100137.98
2018-07-22T11:37:17.885Z,100143.03
2018-07-22T11:40:15.648Z,100142.13
2018-07-22T11:43:13.644Z,100147.44
2018-07-22T11:46:11.495Z,100142.13
2018-07-22T11:49:09.686Z,100141.91
2018-07-22T11:52:06.953Z,100139.98
2018-07-22T11:55:05.168Z,100136.13
2018-07-22T11:58:03.244Z,100131.63
2018-07-22T12:01:00.950Z,100129.69
2018-07-22T12:03:59.123Z,100124.97
2018-07-22T12:06:57.131Z,100130.77
2018-07-22T12:09:54.971Z,100128.09
2018-07-22T12:12:52.939Z,100123.44
2018-07-22T12:15:51.039Z,100122.22
2018-07-22T12:18:49.186Z,100119.03
2018-07-22T12:21:47.110Z,100109.11
2018-07-22T12:24:45.154Z,100113.25
2018-07-22T12:27:43.087Z,100113.28
2018-07-22T12:30:41.030Z,100100.11
2018-07-22T12:33:38.948Z,100100.80
2018-07-22T12:36:37.224Z,100097.61
2018-07-22T12:39:35.090Z,100103.41
2018-07-22T12:42:33.037Z,100102.97
2018-07-22T12:45:30.966Z,100095.53
2018-07-22T12:48:29.199Z,100102.78
2018-07-22T12:51:27.243Z,100096.47
2018-07-22T12:54:25.191Z,100097.38
2018-07-22T12:57:23.131Z,100102.99
2018-07-22T13:00:20.802Z,100104.45
2018-07-22T13:03:18.648Z,100106.41
2018-07-22T13:06:16.751Z,100103.84
2018-07-22T13:09:14.708Z,100097.19
2018-07-22T13:12:12.898Z,100099.57
2018-07-22T13:15:10.674Z,100103.61
2018-07-22T13:18:08.741Z,100105.27
2018-07-22T13:21:07.083Z,100100.25
2018-07-22T13:24:05.099Z,100099.66
2018-07-22T13:27:02.947Z,100094.13
2018-07-22T13:30:02.083Z,100101.36
2018-07-22T13:32:59.970Z,100094.42
2018-07-22T13:35:58.017Z,100096.80
2018-07-22T13:38:56.119Z,100096.00
2018-07-22T13:41:54.128Z,100097.74
2018-07-22T13:45:00.275Z,100100.69
2018-07-22T13:47:58.071Z,100114.44
2018-07-22T13:50:56.156Z,100111.66
2018-07-22T13:53:54.138Z,100121.06
2018-07-22T13:56:52.373Z,100117.01
2018-07-22T13:59:50.478Z,100120.35
2018-07-22T14:02:48.552Z,100122.69
2018-07-22T14:05:46.455Z,100123.46
2018-07-22T14:08:44.275Z,100124.20
2018-07-22T14:11:42.424Z,100121.54
2018-07-22T14:14:40.257Z,100120.90
2018-07-22T14:17:38.334Z,100122.58
2018-07-22T14:20:36.163Z,100120.83
2018-07-22T14:23:34.200Z,100119.11
2018-07-22T14:26:32.174Z,100123.45
2018-07-22T14:29:30.197Z,100129.30
2018-07-22T14:32:28.171Z,100132.02
2018-07-22T14:35:26.191Z,100131.73
2018-07-22T14:38:24.170Z,100136.03
2018-07-22T14:41:22.223Z,100136.95
2018-07-22T14:44:20.241Z,100137.18
2018-07-22T14:47:18.301Z,100148.77
2018-07-22T14:50:16.054Z,100134.09
2018-07-22T14:53:13.807Z,100135.00
2018-07-22T14:56:11.788Z,100145.28
2018-07-22T14:59:09.748Z,100136.95
2018-07-22T15:02:07.719Z,100132.83
2018-07-22T15:05:05.797Z,100137.62
2018-07-22T15:08:03.647Z,100138.87
2018-07-22T15:11:01.621Z,100139.39
2018-07-22T15:13:58.822Z,100129.55
2018-07-22T15:16:56.922Z,100126.68
2018-07-22T15:19:55.020Z,100132.97
2018-07-22T15:22:53.199Z,100127.94
2018-07-22T15:25:50.464Z,100126.36
2018-07-22T15:28:47.834Z,100130.34
2018-07-22T15:31:45.371Z,100132.59
2018-07-22T15:34:43.309Z,100138.15
2018-07-22T15:37:41.466Z,100129.02
2018-07-22T15:40:38.538Z,100132.81
2018-07-22T15:43:36.440Z,100133.89
2018-07-22T15:46:34.624Z,100131.25
2018-07-22T15:49:32.453Z,100127.66
2018-07-22T15:52:30.371Z,100132.29
2018-07-22T15:55:28.545Z,100131.51
2018-07-22T15:58:26.472Z,100132.13
2018-07-22T16:01:24.440Z,100134.02
2018-07-22T16:04:22.428Z,100129.58
2018-07-22T16:07:20.390Z,100130.41
2018-07-22T16:10:18.394Z,100122.58
2018-07-22T16:13:16.301Z,100118.63
2018-07-22T16:16:14.342Z,100114.11
2018-07-22T16:19:12.510Z,100116.16
2018-07-22T16:22:10.521Z,100112.05
2018-07-22T16:25:08.544Z,100103.87
2018-07-22T16:28:06.436Z,100109.39
2018-07-22T16:31:04.596Z,100104.41
2018-07-22T16:34:02.802Z,100112.91
2018-07-22T16:37:00.795Z,100124.55
2018-07-22T16:39:58.500Z,100112.23
2018-07-22T16:42:56.594Z,100117.88
2018-07-22T16:45:54.883Z,100121.15
2018-07-22T16:48:53.048Z,100119.80
2018-07-22T16:51:51.285Z,100119.07
2018-07-22T16:54:49.203Z,100129.25
2018-07-22T16:57:47.268Z,100125.25
2018-07-22T17:00:45.278Z,100111.80
2018-07-22T17:03:43.031Z,100117.69
2018-07-22T17:06:41.117Z,100110.22
2018-07-22T17:09:38.877Z,100114.30
2018-07-22T17:12:36.968Z,100117.84
2018-07-22T17:15:34.942Z,100114.00
2018-07-22T17:18:32.916Z,100122.16
2018-07-22T17:21:30.894Z,100130.91
2018-07-22T17:24:28.162Z,100141.26
2018-07-22T17:27:25.973Z,100132.46
2018-07-22T17:30:23.837Z,100139.44
2018-07-22T17:33:22.782Z,100133.11
2018-07-22T17:36:20.679Z,100133.05
2018-07-22T17:39:20.673Z,100130.77
2018-07-22T17:42:18.786Z,100133.30
2018-07-22T17:45:16.756Z,100135.81
2018-07-22T17:48:14.701Z,100137.62
2018-07-22T17:51:12.820Z,100142.80
2018-07-22T17:54:10.762Z,100143.59
2018-07-22T17:57:08.862Z,100141.42
2018-07-22T18:00:06.563Z,100149.70
2018-07-22T18:03:11.734Z,100147.77
2018-07-22T18:06:09.635Z,100145.06
2018-07-22T18:09:07.594Z,100146.91
2018-07-22T18:12:05.725Z,100148.70
2018-07-22T18:15:03.760Z,100147.47
2018-07-22T18:18:01.803Z,100149.69
2018-07-22T18:20:59.806Z,100154.14
2018-07-22T18:23:57.967Z,100155.07
2018-07-22T18:26:55.965Z,100153.98
2018-07-22T18:29:53.861Z,100153.52
2018-07-22T18:32:52.091Z,100155.68
2018-07-22T18:35:50.135Z,100155.86
2018-07-22T18:38:48.386Z,100155.45
2018-07-22T18:41:46.306Z,100159.63
2018-07-22T18:44:44.743Z,100158.14
2018-07-22T18:47:42.480Z,100162.83
2018-07-22T18:50:40.613Z,100171.30
2018-07-22T18:53:38.876Z,100175.50
2018-07-22T18:56:36.761Z,100178.48
2018-07-22T18:59:34.625Z,100181.47
2018-07-22T19:02:32.491Z,100178.39
2018-07-22T19:25:10.241Z,100185.20
2018-07-22T19:28:08.206Z,100204.28
2018-07-22T19:31:06.286Z,100205.86
2018-07-22T19:34:05.077Z,100210.45
2018-07-22T19:37:02.743Z,100226.30
2018-07-22T19:40:00.844Z,100224.16
2018-07-22T19:42:58.696Z,100224.69
2018-07-22T19:45:56.667Z,100231.67
2018-07-22T19:48:54.433Z,100231.48
2018-07-22T19:51:52.717Z,100233.36
2018-07-22T19:54:50.791Z,100235.52
2018-07-22T19:57:48.663Z,100244.27
2018-07-22T20:00:46.848Z,100244.27
2018-07-22T20:03:44.920Z,100244.09
2018-07-22T20:06:42.821Z,100255.54
2018-07-22T20:09:40.764Z,100253.28
2018-07-22T20:12:39.057Z,100254.32
2018-07-22T20:15:37.121Z,100255.34
2018-07-22T20:18:35.303Z,100258.33
2018-07-22T20:21:33.379Z,100267.21
2018-07-22T20:24:31.310Z,100272.59
2018-07-22T20:27:29.428Z,100267.94
2018-07-22T20:30:27.404Z,100282.06
2018-07-22T20:33:25.387Z,100275.55
2018-07-22T20:36:23.073Z,100280.83
2018-07-22T20:39:23.372Z,100282.27
2018-07-22T20:42:20.839Z,100281.23
2018-07-22T20:45:18.778Z,100284.69
2018-07-22T20:48:16.789Z,100283.80
2018-07-22T20:51:14.892Z,100287.06
2018-07-22T20:54:12.606Z,100288.47
2018-07-22T20:57:10.538Z,100292.61
2018-07-22T21:00:08.534Z,100289.11
2018-07-22T21:03:06.347Z,100299.41
2018-07-22T21:06:04.169Z,100299.70
2018-07-22T21:09:02.143Z,100302.08
2018-07-22T21:13:16.542Z,100304.01
2018-07-22T21:16:14.595Z,100298.50
2018-07-22T21:19:12.427Z,100306.34
2018-07-22T21:22:10.155Z,100306.48
2018-07-22T21:25:07.854Z,100307.14
2018-07-22T21:28:05.813Z,100303.28
2018-07-22T21:31:03.906Z,100310.65
2018-07-22T21:34:01.938Z,100316.59
2018-07-22T21:36:59.780Z,100319.59
2018-07-22T21:39:58.013Z,100320.11
2018-07-22T21:42:56.071Z,100316.02
2018-07-22T21:45:54.358Z,100315.01
2018-07-22T21:48:52.421Z,100315.08
2018-07-22T21:51:50.301Z,100305.30
2018-07-22T21:54:48.277Z,100312.34
2018-07-22T21:57:46.148Z,100312.72
2018-07-22T22:00:52.096Z,100321.13
2018-07-22T22:03:50.105Z,100326.14
2018-07-22T22:06:47.127Z,100329.06
2018-07-22T22:09:45.125Z,100334.98
2018-07-22T22:12:42.972Z,100330.61
2018-07-22T22:15:40.834Z,100322.71
2018-07-22T22:18:38.828Z,100322.54
2018-07-22T22:21:36.786Z,100332.70
2018-07-22T22:24:34.781Z,100330.21
2018-07-22T22:27:32.688Z,100328.45
2018-07-22T22:30:30.502Z,100328.66
2018-07-22T22:33:28.438Z,100332.13
2018-07-22T22:36:26.635Z,100334.05
2018-07-22T22:39:24.698Z,100333.83
2018-07-22T22:42:22.535Z,100335.68
2018-07-22T22:45:20.510Z,100341.38
2018-07-22T22:48:18.444Z,100334.28
2018-07-22T22:51:16.642Z,100335.84
2018-07-22T22:54:14.414Z,100340.36
2018-07-22T22:57:12.203Z,100329.16
2018-07-22T23:00:10.232Z,100335.48
2018-07-22T23:03:08.330Z,100334.18
2018-07-22T23:06:06.269Z,100333.21
2018-07-22T23:09:04.332Z,100324.70
2018-07-22T23:12:02.234Z,100328.22
2018-07-22T23:15:00.453Z,100320.55
2018-07-22T23:17:58.494Z,100323.77
2018-07-22T23:20:56.465Z,100324.28
2018-07-22T23:23:54.542Z,100320.25
2018-07-22T23:26:52.739Z,100325.07
2018-07-22T23:29:50.684Z,100323.27
2018-07-22T23:32:48.607Z,100323.52
2018-07-22T23:35:45.929Z,100320.60
2018-07-22T23:38:44.030Z,100324.25
2018-07-22T23:41:41.248Z,100324.05
2018-07-22T23:44:39.331Z,100323.44
2018-07-22T23:47:37.114Z,100325.47
2018-07-22T23:50:35.081Z,100326.09
2018-07-22T23:53:32.178Z,100321.91
2018-07-22T23:56:30.183Z,100317.60
2018-07-22T23:59:27.438Z,100321.23
